sensor_id;sensor_type;location;lat;lon;timestamp;temperature;humidity
3406;DHT22;10008;48.682;9.016;2023-09-19T00:01:42;16.40;99.90
3406;DHT22;10008;48.682;9.016;2023-09-19T00:04:12;16.20;99.90
3406;DHT22;10008;48.682;9.016;2023-09-19T00:06:38;16.10;99.90
3406;DHT22;10008;48.682;9.016;2023-09-19T00:09:04;16.00;99.90
3406;DHT22;10008;48.682;9.016;2023-09-19T00:11:30;16.00;99.90
3406;DHT22;10008;48.682;9.016;2023-09-19T00:13:57;15.90;99.90
3406;DHT22;10008;48.682;9.016;2023-09-19T00:16:25;15.90;99.90
3406;DHT22;10008;48.682;9.016;2023-09-19T00:18:51;15.90;99.90
3406;DHT22;10008;48.682;9.016;2023-09-19T00:21:18;15.80;99.90
3406;DHT22;10008;48.682;9.016;2023-09-19T00:23:45;15.90;99.90
3406;DHT22;10008;48.682;9.016;2023-09-19T00:26:10;15.80;99.90
3406;DHT22;10008;48.682;9.016;2023-09-19T00:28:37;15.90;99.90
3406;DHT22;10008;48.682;9.016;2023-09-19T00:31:03;15.80;99.90
3406;DHT22;10008;48.682;9.016;2023-09-19T00:33:31;15.80;99.90
3406;DHT22;10008;48.682;9.016;2023-09-19T00:35:57;15.80;99.90
3406;DHT22;10008;48.682;9.016;2023-09-19T00:38:23;15.90;99.90
3406;DHT22;10008;48.682;9.016;2023-09-19T00:40:53;15.80;99.90
3406;DHT22;10008;48.682;9.016;2023-09-19T00:43:20;15.90;99.90
3406;DHT22;10008;48.682;9.016;2023-09-19T00:45:51;15.80;99.90
3406;DHT22;10008;48.682;9.016;2023-09-19T00:48:20;15.90;99.90
3406;DHT22;10008;48.682;9.016;2023-09-19T00:50:47;15.90;99.90
3406;DHT22;10008;48.682;9.016;2023-09-19T00:53:17;15.90;99.90
3406;DHT22;10008;48.682;9.016;2023-09-19T00:55:45;15.90;99.90
3406;DHT22;10008;48.682;9.016;2023-09-19T00:58:11;15.90;99.90
3406;DHT22;10008;48.682;9.016;2023-09-19T01:00:37;15.90;99.90
3406;DHT22;10008;48.682;9.016;2023-09-19T01:03:04;15.90;99.90
3406;DHT22;10008;48.682;9.016;2023-09-19T01:05:33;15.90;99.90
3406;DHT22;10008;48.682;9.016;2023-09-19T01:07:59;15.90;99.90
3406;DHT22;10008;48.682;9.016;2023-09-19T01:10:25;15.80;99.90
3406;DHT22;10008;48.682;9.016;2023-09-19T01:13:13;15.90;99.90
3406;DHT22;10008;48.682;9.016;2023-09-19T01:16:10;15.90;99.90
3406;DHT22;10008;48.682;9.016;2023-09-19T01:18:43;15.90;99.90
3406;DHT22;10008;48.682;9.016;2023-09-19T01:27:30;15.90;99.90
3406;DHT22;10008;48.682;9.016;2023-09-19T01:30:33;15.90;99.90
3406;DHT22;10008;48.682;9.016;2023-09-19T01:33:02;15.90;99.90
3406;DHT22;10008;48.682;9.016;2023-09-19T01:35:29;15.90;99.90
3406;DHT22;10008;48.682;9.016;2023-09-19T01:37:55;16.00;99.90
3406;DHT22;10008;48.682;9.016;2023-09-19T01:40:21;16.00;99.90
3406;DHT22;10008;48.682;9.016;2023-09-19T01:51:02;16.00;99.90
3406;DHT22;10008;48.682;9.016;2023-09-19T01:53:51;16.00;99.90
3406;DHT22;10008;48.682;9.016;2023-09-19T01:56:48;16.00;99.90
3406;DHT22;10008;48.682;9.016;2023-09-19T01:59:25;15.90;99.90
3406;DHT22;10008;48.682;9.016;2023-09-19T02:01:54;15.90;99.90
3406;DHT22;10008;48.682;9.016;2023-09-19T02:04:21;15.80;99.90
3406;DHT22;10008;48.682;9.016;2023-09-19T02:06:46;15.80;99.90
3406;DHT22;10008;48.682;9.016;2023-09-19T02:09:15;15.80;99.90
3406;DHT22;10008;48.682;9.016;2023-09-19T02:11:41;15.70;99.90
3406;DHT22;10008;48.682;9.016;2023-09-19T02:14:08;15.70;99.90
3406;DHT22;10008;48.682;9.016;2023-09-19T02:16:34;15.70;99.90
3406;DHT22;10008;48.682;9.016;2023-09-19T02:19:00;15.70;99.90
3406;DHT22;10008;48.682;9.016;2023-09-19T02:21:26;15.60;99.90
3406;DHT22;10008;48.682;9.016;2023-09-19T02:23:55;15.60;99.90
3406;DHT22;10008;48.682;9.016;2023-09-19T02:26:21;15.60;99.90
3406;DHT22;10008;48.682;9.016;2023-09-19T02:28:50;15.60;99.90
3406;DHT22;10008;48.682;9.016;2023-09-19T02:31:16;15.60;99.90
3406;DHT22;10008;48.682;9.016;2023-09-19T02:33:42;15.60;99.90
3406;DHT22;10008;48.682;9.016;2023-09-19T02:36:09;15.60;99.90
3406;DHT22;10008;48.682;9.016;2023-09-19T02:38:35;15.60;99.90
3406;DHT22;10008;48.682;9.016;2023-09-19T02:41:01;15.60;99.90
3406;DHT22;10008;48.682;9.016;2023-09-19T02:43:27;15.60;99.90
3406;DHT22;10008;48.682;9.016;2023-09-19T02:45:53;15.50;99.90
3406;DHT22;10008;48.682;9.016;2023-09-19T02:48:20;15.50;99.90
3406;DHT22;10008;48.682;9.016;2023-09-19T02:50:49;15.50;99.90
3406;DHT22;10008;48.682;9.016;2023-09-19T02:53:15;15.50;99.90
3406;DHT22;10008;48.682;9.016;2023-09-19T02:55:41;15.60;99.90
3406;DHT22;10008;48.682;9.016;2023-09-19T02:58:08;15.60;99.90
3406;DHT22;10008;48.682;9.016;2023-09-19T03:00:37;15.70;99.90
3406;DHT22;10008;48.682;9.016;2023-09-19T03:03:03;15.70;99.90
3406;DHT22;10008;48.682;9.016;2023-09-19T03:05:29;15.80;99.90
3406;DHT22;10008;48.682;9.016;2023-09-19T03:07:58;15.80;99.90
3406;DHT22;10008;48.682;9.016;2023-09-19T03:10:26;15.90;99.90
3406;DHT22;10008;48.682;9.016;2023-09-19T03:12:53;15.90;99.90
3406;DHT22;10008;48.682;9.016;2023-09-19T03:15:20;15.90;99.90
3406;DHT22;10008;48.682;9.016;2023-09-19T03:17:48;15.90;99.90
3406;DHT22;10008;48.682;9.016;2023-09-19T03:20:18;16.00;99.90
3406;DHT22;10008;48.682;9.016;2023-09-19T03:22:46;16.00;99.90
3406;DHT22;10008;48.682;9.016;2023-09-19T03:25:13;16.00;99.90
3406;DHT22;10008;48.682;9.016;2023-09-19T03:27:42;16.00;99.90
3406;DHT22;10008;48.682;9.016;2023-09-19T03:30:09;16.00;99.90
3406;DHT22;10008;48.682;9.016;2023-09-19T03:32:44;16.00;99.90
3406;DHT22;10008;48.682;9.016;2023-09-19T03:35:10;16.00;99.90
3406;DHT22;10008;48.682;9.016;2023-09-19T03:37:36;16.00;99.90
3406;DHT22;10008;48.682;9.016;2023-09-19T03:40:02;16.00;99.90
3406;DHT22;10008;48.682;9.016;2023-09-19T03:42:31;16.00;99.90
3406;DHT22;10008;48.682;9.016;2023-09-19T03:44:57;16.00;99.90
3406;DHT22;10008;48.682;9.016;2023-09-19T03:47:23;16.10;99.90
3406;DHT22;10008;48.682;9.016;2023-09-19T03:49:49;16.00;99.90
3406;DHT22;10008;48.682;9.016;2023-09-19T03:52:15;16.00;99.90
3406;DHT22;10008;48.682;9.016;2023-09-19T03:54:41;15.90;99.90
3406;DHT22;10008;48.682;9.016;2023-09-19T03:57:08;15.90;99.90
3406;DHT22;10008;48.682;9.016;2023-09-19T03:59:34;15.80;99.90
3406;DHT22;10008;48.682;9.016;2023-09-19T04:02:01;15.80;99.90
3406;DHT22;10008;48.682;9.016;2023-09-19T04:04:27;15.80;99.90
3406;DHT22;10008;48.682;9.016;2023-09-19T04:06:54;15.70;99.90
3406;DHT22;10008;48.682;9.016;2023-09-19T04:09:20;15.70;99.90
3406;DHT22;10008;48.682;9.016;2023-09-19T04:11:46;15.70;99.90
3406;DHT22;10008;48.682;9.016;2023-09-19T04:14:11;15.70;99.90
3406;DHT22;10008;48.682;9.016;2023-09-19T04:16:37;15.70;99.90
3406;DHT22;10008;48.682;9.016;2023-09-19T04:19:04;15.70;99.90
3406;DHT22;10008;48.682;9.016;2023-09-19T04:21:31;15.70;99.90
3406;DHT22;10008;48.682;9.016;2023-09-19T04:23:56;15.70;99.90
3406;DHT22;10008;48.682;9.016;2023-09-19T04:26:22;15.80;99.90
3406;DHT22;10008;48.682;9.016;2023-09-19T04:28:48;15.70;99.90
3406;DHT22;10008;48.682;9.016;2023-09-19T04:31:13;15.80;99.90
3406;DHT22;10008;48.682;9.016;2023-09-19T04:33:39;15.70;99.90
3406;DHT22;10008;48.682;9.016;2023-09-19T04:36:05;15.70;99.90
3406;DHT22;10008;48.682;9.016;2023-09-19T04:38:33;15.80;99.90
3406;DHT22;10008;48.682;9.016;2023-09-19T04:40:59;15.80;99.90
3406;DHT22;10008;48.682;9.016;2023-09-19T04:43:25;15.80;99.90
3406;DHT22;10008;48.682;9.016;2023-09-19T04:45:51;15.80;99.90
3406;DHT22;10008;48.682;9.016;2023-09-19T04:48:22;15.80;99.90
3406;DHT22;10008;48.682;9.016;2023-09-19T04:50:49;15.80;99.90
3406;DHT22;10008;48.682;9.016;2023-09-19T04:53:17;15.80;99.90
3406;DHT22;10008;48.682;9.016;2023-09-19T04:55:50;15.80;99.90
3406;DHT22;10008;48.682;9.016;2023-09-19T04:58:16;15.80;99.90
3406;DHT22;10008;48.682;9.016;2023-09-19T05:00:43;15.90;99.90
3406;DHT22;10008;48.682;9.016;2023-09-19T05:03:09;15.80;99.90
3406;DHT22;10008;48.682;9.016;2023-09-19T05:05:34;15.80;99.90
3406;DHT22;10008;48.682;9.016;2023-09-19T05:08:00;15.70;99.90
3406;DHT22;10008;48.682;9.016;2023-09-19T05:10:26;15.60;99.90
3406;DHT22;10008;48.682;9.016;2023-09-19T05:12:54;15.60;99.90
3406;DHT22;10008;48.682;9.016;2023-09-19T05:15:20;15.50;99.90
3406;DHT22;10008;48.682;9.016;2023-09-19T05:17:50;15.40;99.90
3406;DHT22;10008;48.682;9.016;2023-09-19T05:20:17;15.30;99.90
3406;DHT22;10008;48.682;9.016;2023-09-19T05:23:10;15.30;99.90
3406;DHT22;10008;48.682;9.016;2023-09-19T05:25:40;15.30;99.90
3406;DHT22;10008;48.682;9.016;2023-09-19T05:28:06;15.20;99.90
3406;DHT22;10008;48.682;9.016;2023-09-19T05:30:33;15.20;99.90
3406;DHT22;10008;48.682;9.016;2023-09-19T05:33:02;15.10;99.90
3406;DHT22;10008;48.682;9.016;2023-09-19T05:35:29;15.10;99.90
3406;DHT22;10008;48.682;9.016;2023-09-19T05:37:55;15.20;99.90
3406;DHT22;10008;48.682;9.016;2023-09-19T05:40:21;15.10;99.90
3406;DHT22;10008;48.682;9.016;2023-09-19T05:42:47;15.10;99.90
3406;DHT22;10008;48.682;9.016;2023-09-19T05:45:13;15.20;99.90
3406;DHT22;10008;48.682;9.016;2023-09-19T05:47:43;15.20;99.90
3406;DHT22;10008;48.682;9.016;2023-09-19T05:50:11;15.20;99.90
3406;DHT22;10008;48.682;9.016;2023-09-19T05:52:37;15.20;99.90
3406;DHT22;10008;48.682;9.016;2023-09-19T05:55:07;15.20;99.90
3406;DHT22;10008;48.682;9.016;2023-09-19T05:57:37;15.20;99.90
3406;DHT22;10008;48.682;9.016;2023-09-19T06:00:06;15.30;99.90
3406;DHT22;10008;48.682;9.016;2023-09-19T06:02:38;15.30;99.90
3406;DHT22;10008;48.682;9.016;2023-09-19T06:05:06;15.30;99.90
3406;DHT22;10008;48.682;9.016;2023-09-19T06:07:35;15.30;99.90
3406;DHT22;10008;48.682;9.016;2023-09-19T06:10:06;15.30;99.90
3406;DHT22;10008;48.682;9.016;2023-09-19T06:12:39;15.30;99.90
3406;DHT22;10008;48.682;9.016;2023-09-19T06:15:05;15.20;99.90
3406;DHT22;10008;48.682;9.016;2023-09-19T06:17:34;15.00;99.90
3406;DHT22;10008;48.682;9.016;2023-09-19T06:20:07;15.00;99.90
3406;DHT22;10008;48.682;9.016;2023-09-19T06:22:43;15.00;99.90
3406;DHT22;10008;48.682;9.016;2023-09-19T06:25:10;15.00;99.90
3406;DHT22;10008;48.682;9.016;2023-09-19T06:27:41;15.20;99.90
3406;DHT22;10008;48.682;9.016;2023-09-19T06:30:09;15.20;99.90
3406;DHT22;10008;48.682;9.016;2023-09-19T06:32:35;15.40;99.90
3406;DHT22;10008;48.682;9.016;2023-09-19T06:35:01;15.40;99.90
3406;DHT22;10008;48.682;9.016;2023-09-19T06:37:29;15.50;99.90
3406;DHT22;10008;48.682;9.016;2023-09-19T06:39:55;15.50;99.90
3406;DHT22;10008;48.682;9.016;2023-09-19T06:42:22;15.60;99.90
3406;DHT22;10008;48.682;9.016;2023-09-19T06:44:49;15.90;99.90
3406;DHT22;10008;48.682;9.016;2023-09-19T06:47:15;16.20;99.90
3406;DHT22;10008;48.682;9.016;2023-09-19T06:49:41;16.60;99.90
3406;DHT22;10008;48.682;9.016;2023-09-19T06:52:10;16.80;99.90
3406;DHT22;10008;48.682;9.016;2023-09-19T06:54:35;16.80;99.90
3406;DHT22;10008;48.682;9.016;2023-09-19T06:57:01;16.90;99.90
3406;DHT22;10008;48.682;9.016;2023-09-19T06:59:27;17.00;99.90
3406;DHT22;10008;48.682;9.016;2023-09-19T07:01:53;17.00;99.90
3406;DHT22;10008;48.682;9.016;2023-09-19T07:04:18;17.00;99.90
3406;DHT22;10008;48.682;9.016;2023-09-19T07:06:50;17.00;99.90
3406;DHT22;10008;48.682;9.016;2023-09-19T07:09:16;17.10;99.90
3406;DHT22;10008;48.682;9.016;2023-09-19T07:11:43;17.20;99.90
3406;DHT22;10008;48.682;9.016;2023-09-19T07:14:09;17.20;99.90
3406;DHT22;10008;48.682;9.016;2023-09-19T07:16:38;17.40;99.90
3406;DHT22;10008;48.682;9.016;2023-09-19T07:19:05;17.60;99.90
3406;DHT22;10008;48.682;9.016;2023-09-19T07:21:31;17.70;99.90
3406;DHT22;10008;48.682;9.016;2023-09-19T07:24:00;17.90;99.90
3406;DHT22;10008;48.682;9.016;2023-09-19T07:26:27;18.10;99.90
3406;DHT22;10008;48.682;9.016;2023-09-19T07:28:53;18.40;99.90
3406;DHT22;10008;48.682;9.016;2023-09-19T07:31:19;18.60;99.90
3406;DHT22;10008;48.682;9.016;2023-09-19T07:33:45;18.60;99.90
3406;DHT22;10008;48.682;9.016;2023-09-19T07:36:11;19.00;99.90
3406;DHT22;10008;48.682;9.016;2023-09-19T07:38:40;19.20;99.90
3406;DHT22;10008;48.682;9.016;2023-09-19T07:41:07;19.60;99.90
3406;DHT22;10008;48.682;9.016;2023-09-19T07:43:35;19.70;99.90
3406;DHT22;10008;48.682;9.016;2023-09-19T07:46:07;19.80;99.90
3406;DHT22;10008;48.682;9.016;2023-09-19T07:48:35;19.90;99.90
3406;DHT22;10008;48.682;9.016;2023-09-19T07:51:05;19.90;99.90
3406;DHT22;10008;48.682;9.016;2023-09-19T07:53:32;19.70;99.90
3406;DHT22;10008;48.682;9.016;2023-09-19T07:56:07;20.00;99.90
3406;DHT22;10008;48.682;9.016;2023-09-19T07:58:34;20.30;99.90
3406;DHT22;10008;48.682;9.016;2023-09-19T08:01:05;20.40;99.90
3406;DHT22;10008;48.682;9.016;2023-09-19T08:03:32;20.80;99.90
3406;DHT22;10008;48.682;9.016;2023-09-19T08:05:58;21.10;99.90
3406;DHT22;10008;48.682;9.016;2023-09-19T08:08:25;21.30;99.90
3406;DHT22;10008;48.682;9.016;2023-09-19T08:10:55;21.50;99.90
3406;DHT22;10008;48.682;9.016;2023-09-19T08:13:25;21.30;99.90
3406;DHT22;10008;48.682;9.016;2023-09-19T08:15:52;21.20;99.90
3406;DHT22;10008;48.682;9.016;2023-09-19T08:18:20;20.60;99.90
3406;DHT22;10008;48.682;9.016;2023-09-19T08:20:50;20.60;99.90
3406;DHT22;10008;48.682;9.016;2023-09-19T08:23:16;20.60;99.90
3406;DHT22;10008;48.682;9.016;2023-09-19T08:25:46;20.10;99.90
3406;DHT22;10008;48.682;9.016;2023-09-19T08:28:12;19.50;99.90
3406;DHT22;10008;48.682;9.016;2023-09-19T08:30:45;19.00;99.90
3406;DHT22;10008;48.682;9.016;2023-09-19T08:33:11;19.10;99.90
3406;DHT22;10008;48.682;9.016;2023-09-19T08:35:37;19.30;99.90
3406;DHT22;10008;48.682;9.016;2023-09-19T08:38:05;19.10;99.90
3406;DHT22;10008;48.682;9.016;2023-09-19T08:40:32;19.10;99.90
3406;DHT22;10008;48.682;9.016;2023-09-19T08:42:59;19.50;99.90
3406;DHT22;10008;48.682;9.016;2023-09-19T08:45:26;19.80;99.90
3406;DHT22;10008;48.682;9.016;2023-09-19T08:51:07;20.50;99.90
3406;DHT22;10008;48.682;9.016;2023-09-19T08:54:07;21.40;99.90
3406;DHT22;10008;48.682;9.016;2023-09-19T08:56:33;22.50;99.90
3406;DHT22;10008;48.682;9.016;2023-09-19T08:59:06;22.90;99.90
3406;DHT22;10008;48.682;9.016;2023-09-19T09:01:38;23.20;99.90
3406;DHT22;10008;48.682;9.016;2023-09-19T09:04:09;24.00;99.90
3406;DHT22;10008;48.682;9.016;2023-09-19T09:06:39;24.00;99.90
3406;DHT22;10008;48.682;9.016;2023-09-19T09:09:08;23.40;99.90
3406;DHT22;10008;48.682;9.016;2023-09-19T09:11:34;22.60;99.90
3406;DHT22;10008;48.682;9.016;2023-09-19T09:14:02;22.60;99.90
3406;DHT22;10008;48.682;9.016;2023-09-19T09:16:29;22.70;99.90
3406;DHT22;10008;48.682;9.016;2023-09-19T09:18:55;22.80;99.80
3406;DHT22;10008;48.682;9.016;2023-09-19T09:21:23;22.70;99.80
3406;DHT22;10008;48.682;9.016;2023-09-19T09:23:50;22.40;99.00
3406;DHT22;10008;48.682;9.016;2023-09-19T09:26:17;22.20;99.90
3406;DHT22;10008;48.682;9.016;2023-09-19T09:28:50;22.50;99.00
3406;DHT22;10008;48.682;9.016;2023-09-19T09:31:24;22.60;98.00
3406;DHT22;10008;48.682;9.016;2023-09-19T09:33:54;22.50;99.00
3406;DHT22;10008;48.682;9.016;2023-09-19T09:36:38;22.40;99.30
3406;DHT22;10008;48.682;9.016;2023-09-19T09:39:04;22.50;98.90
3406;DHT22;10008;48.682;9.016;2023-09-19T09:41:50;22.60;98.10
3406;DHT22;10008;48.682;9.016;2023-09-19T09:44:17;22.30;98.70
3406;DHT22;10008;48.682;9.016;2023-09-19T09:46:45;22.50;98.30
3406;DHT22;10008;48.682;9.016;2023-09-19T09:49:24;22.70;97.60
3406;DHT22;10008;48.682;9.016;2023-09-19T09:52:06;22.90;97.10
3406;DHT22;10008;48.682;9.016;2023-09-19T09:54:59;22.90;97.30
3406;DHT22;10008;48.682;9.016;2023-09-19T09:57:26;22.50;95.80
3406;DHT22;10008;48.682;9.016;2023-09-19T09:59:57;22.50;96.70
3406;DHT22;10008;48.682;9.016;2023-09-19T10:02:42;22.80;96.90
3406;DHT22;10008;48.682;9.016;2023-09-19T10:05:15;22.70;96.30
3406;DHT22;10008;48.682;9.016;2023-09-19T10:07:54;22.40;96.20
3406;DHT22;10008;48.682;9.016;2023-09-19T10:10:36;22.40;96.10
3406;DHT22;10008;48.682;9.016;2023-09-19T10:13:14;22.20;96.10
3406;DHT22;10008;48.682;9.016;2023-09-19T10:15:48;21.60;96.90
3406;DHT22;10008;48.682;9.016;2023-09-19T10:18:24;22.10;97.00
3406;DHT22;10008;48.682;9.016;2023-09-19T10:20:50;22.50;96.60
3406;DHT22;10008;48.682;9.016;2023-09-19T10:23:21;23.00;95.40
3406;DHT22;10008;48.682;9.016;2023-09-19T10:25:52;23.00;95.10
3406;DHT22;10008;48.682;9.016;2023-09-19T10:28:19;23.50;95.80
3406;DHT22;10008;48.682;9.016;2023-09-19T10:30:49;23.30;94.30
3406;DHT22;10008;48.682;9.016;2023-09-19T10:33:23;23.10;95.40
3406;DHT22;10008;48.682;9.016;2023-09-19T10:35:51;23.00;94.00
3406;DHT22;10008;48.682;9.016;2023-09-19T10:38:18;23.10;94.40
3406;DHT22;10008;48.682;9.016;2023-09-19T10:40:49;23.60;95.30
3406;DHT22;10008;48.682;9.016;2023-09-19T10:43:17;24.00;94.30
3406;DHT22;10008;48.682;9.016;2023-09-19T10:45:48;24.00;93.10
3406;DHT22;10008;48.682;9.016;2023-09-19T10:48:19;24.40;94.70
3406;DHT22;10008;48.682;9.016;2023-09-19T10:53:26;24.20;93.30
3406;DHT22;10008;48.682;9.016;2023-09-19T10:55:57;24.40;92.60
3406;DHT22;10008;48.682;9.016;2023-09-19T10:58:29;24.90;92.10
3406;DHT22;10008;48.682;9.016;2023-09-19T11:01:00;24.50;93.20
3406;DHT22;10008;48.682;9.016;2023-09-19T11:03:40;24.20;92.20
3406;DHT22;10008;48.682;9.016;2023-09-19T11:06:16;23.40;92.00
3406;DHT22;10008;48.682;9.016;2023-09-19T11:09:02;22.70;93.70
3406;DHT22;10008;48.682;9.016;2023-09-19T11:11:46;23.30;93.70
3406;DHT22;10008;48.682;9.016;2023-09-19T11:30:32;22.40;94.40
3406;DHT22;10008;48.682;9.016;2023-09-19T11:33:24;22.20;95.20
3406;DHT22;10008;48.682;9.016;2023-09-19T11:36:12;23.10;93.20
3406;DHT22;10008;48.682;9.016;2023-09-19T11:43:52;25.70;90.90
3406;DHT22;10008;48.682;9.016;2023-09-19T11:46:20;25.70;88.10
3406;DHT22;10008;48.682;9.016;2023-09-19T11:48:50;26.10;88.40
3406;DHT22;10008;48.682;9.016;2023-09-19T11:51:17;26.40;90.10
3406;DHT22;10008;48.682;9.016;2023-09-19T11:53:56;24.90;88.90
3406;DHT22;10008;48.682;9.016;2023-09-19T11:56:25;23.30;92.50
3406;DHT22;10008;48.682;9.016;2023-09-19T11:58:55;22.70;93.50
3406;DHT22;10008;48.682;9.016;2023-09-19T12:01:23;23.30;93.60
3406;DHT22;10008;48.682;9.016;2023-09-19T12:03:53;23.70;92.60
3406;DHT22;10008;48.682;9.016;2023-09-19T12:06:20;24.30;92.80
3406;DHT22;10008;48.682;9.016;2023-09-19T12:08:47;25.00;91.40
3406;DHT22;10008;48.682;9.016;2023-09-19T12:11:15;25.00;91.10
3406;DHT22;10008;48.682;9.016;2023-09-19T12:13:45;25.00;91.00
3406;DHT22;10008;48.682;9.016;2023-09-19T12:16:16;25.40;90.50
3406;DHT22;10008;48.682;9.016;2023-09-19T12:18:46;25.90;90.90
3406;DHT22;10008;48.682;9.016;2023-09-19T12:21:42;26.20;88.70
3406;DHT22;10008;48.682;9.016;2023-09-19T12:24:12;26.00;88.50
3406;DHT22;10008;48.682;9.016;2023-09-19T12:26:44;25.80;89.50
3406;DHT22;10008;48.682;9.016;2023-09-19T12:29:14;26.30;90.70
3406;DHT22;10008;48.682;9.016;2023-09-19T12:31:53;26.50;88.40
3406;DHT22;10008;48.682;9.016;2023-09-19T12:34:30;26.90;88.70
3406;DHT22;10008;48.682;9.016;2023-09-19T12:39:48;27.20;85.50
3406;DHT22;10008;48.682;9.016;2023-09-19T12:42:16;26.50;84.40
3406;DHT22;10008;48.682;9.016;2023-09-19T12:44:45;26.30;86.50
3406;DHT22;10008;48.682;9.016;2023-09-19T12:47:12;27.00;87.50
3406;DHT22;10008;48.682;9.016;2023-09-19T12:55:40;27.40;84.70
3406;DHT22;10008;48.682;9.016;2023-09-19T12:58:14;27.50;84.60
3406;DHT22;10008;48.682;9.016;2023-09-19T13:00:45;27.20;82.50
3406;DHT22;10008;48.682;9.016;2023-09-19T13:03:13;26.80;85.90
3406;DHT22;10008;48.682;9.016;2023-09-19T13:08:21;26.60;87.30
3406;DHT22;10008;48.682;9.016;2023-09-19T13:13:33;27.00;83.00
3406;DHT22;10008;48.682;9.016;2023-09-19T13:16:00;26.60;84.20
3406;DHT22;10008;48.682;9.016;2023-09-19T13:18:27;26.50;84.00
3406;DHT22;10008;48.682;9.016;2023-09-19T13:21:06;26.40;85.50
3406;DHT22;10008;48.682;9.016;2023-09-19T13:23:36;26.90;84.40
3406;DHT22;10008;48.682;9.016;2023-09-19T13:26:02;26.90;83.70
3406;DHT22;10008;48.682;9.016;2023-09-19T13:28:30;26.60;83.50
3406;DHT22;10008;48.682;9.016;2023-09-19T13:30:55;26.60;83.90
3406;DHT22;10008;48.682;9.016;2023-09-19T13:33:22;27.10;82.80
3406;DHT22;10008;48.682;9.016;2023-09-19T13:35:48;26.50;80.10
3406;DHT22;10008;48.682;9.016;2023-09-19T13:38:14;26.40;83.30
3406;DHT22;10008;48.682;9.016;2023-09-19T13:40:40;26.50;83.20
3406;DHT22;10008;48.682;9.016;2023-09-19T13:43:07;26.40;83.60
3406;DHT22;10008;48.682;9.016;2023-09-19T13:45:33;26.80;85.50
3406;DHT22;10008;48.682;9.016;2023-09-19T13:47:59;26.70;81.70
3406;DHT22;10008;48.682;9.016;2023-09-19T13:50:25;26.70;84.40
3406;DHT22;10008;48.682;9.016;2023-09-19T13:52:54;26.80;84.50
3406;DHT22;10008;48.682;9.016;2023-09-19T13:55:21;27.00;80.50
3406;DHT22;10008;48.682;9.016;2023-09-19T13:57:47;26.60;83.10
3406;DHT22;10008;48.682;9.016;2023-09-19T14:00:18;26.30;81.90
3406;DHT22;10008;48.682;9.016;2023-09-19T14:02:44;26.00;82.70
3406;DHT22;10008;48.682;9.016;2023-09-19T14:05:12;25.30;83.20
3406;DHT22;10008;48.682;9.016;2023-09-19T14:07:45;25.30;87.00
3406;DHT22;10008;48.682;9.016;2023-09-19T14:10:11;25.60;83.70
3406;DHT22;10008;48.682;9.016;2023-09-19T14:12:38;25.60;84.20
3406;DHT22;10008;48.682;9.016;2023-09-19T14:15:08;25.70;85.20
3406;DHT22;10008;48.682;9.016;2023-09-19T14:17:34;25.60;83.40
3406;DHT22;10008;48.682;9.016;2023-09-19T14:20:00;25.20;85.70
3406;DHT22;10008;48.682;9.016;2023-09-19T14:22:25;25.00;86.10
3406;DHT22;10008;48.682;9.016;2023-09-19T14:24:51;24.80;86.70
3406;DHT22;10008;48.682;9.016;2023-09-19T14:27:18;24.80;87.00
3406;DHT22;10008;48.682;9.016;2023-09-19T14:29:44;24.80;88.80
3406;DHT22;10008;48.682;9.016;2023-09-19T14:32:10;24.90;89.30
3406;DHT22;10008;48.682;9.016;2023-09-19T14:34:36;25.00;86.40
3406;DHT22;10008;48.682;9.016;2023-09-19T14:37:08;24.80;85.90
3406;DHT22;10008;48.682;9.016;2023-09-19T14:39:33;24.50;85.70
3406;DHT22;10008;48.682;9.016;2023-09-19T14:41:59;24.70;86.70
3406;DHT22;10008;48.682;9.016;2023-09-19T14:44:25;25.10;85.60
3406;DHT22;10008;48.682;9.016;2023-09-19T14:46:50;25.00;81.80
3406;DHT22;10008;48.682;9.016;2023-09-19T14:49:17;24.90;86.40
3406;DHT22;10008;48.682;9.016;2023-09-19T14:51:42;24.80;86.40
3406;DHT22;10008;48.682;9.016;2023-09-19T14:54:13;24.60;83.90
3406;DHT22;10008;48.682;9.016;2023-09-19T14:56:42;24.40;85.60
3406;DHT22;10008;48.682;9.016;2023-09-19T14:59:08;24.40;85.60
3406;DHT22;10008;48.682;9.016;2023-09-19T15:01:36;24.00;84.10
3406;DHT22;10008;48.682;9.016;2023-09-19T15:04:02;23.80;86.30
3406;DHT22;10008;48.682;9.016;2023-09-19T15:06:28;23.90;90.40
3406;DHT22;10008;48.682;9.016;2023-09-19T15:08:54;24.00;88.90
3406;DHT22;10008;48.682;9.016;2023-09-19T15:11:20;23.90;88.30
3406;DHT22;10008;48.682;9.016;2023-09-19T15:13:47;24.00;87.60
3406;DHT22;10008;48.682;9.016;2023-09-19T15:16:13;23.80;87.00
3406;DHT22;10008;48.682;9.016;2023-09-19T15:18:44;23.70;90.60
3406;DHT22;10008;48.682;9.016;2023-09-19T15:21:13;23.60;90.20
3406;DHT22;10008;48.682;9.016;2023-09-19T15:23:41;23.50;88.70
3406;DHT22;10008;48.682;9.016;2023-09-19T15:26:10;23.40;88.20
3406;DHT22;10008;48.682;9.016;2023-09-19T15:28:37;23.40;90.10
3406;DHT22;10008;48.682;9.016;2023-09-19T15:31:05;23.20;89.50
3406;DHT22;10008;48.682;9.016;2023-09-19T15:33:32;23.20;90.90
3406;DHT22;10008;48.682;9.016;2023-09-19T15:41:22;23.00;91.30
3406;DHT22;10008;48.682;9.016;2023-09-19T15:43:48;22.90;90.80
3406;DHT22;10008;48.682;9.016;2023-09-19T15:46:14;22.70;90.80
3406;DHT22;10008;48.682;9.016;2023-09-19T15:48:41;22.70;90.20
3406;DHT22;10008;48.682;9.016;2023-09-19T15:51:07;22.80;91.00
3406;DHT22;10008;48.682;9.016;2023-09-19T15:53:45;22.80;92.50
3406;DHT22;10008;48.682;9.016;2023-09-19T15:56:12;22.80;92.80
3406;DHT22;10008;48.682;9.016;2023-09-19T15:59:00;22.80;92.70
3406;DHT22;10008;48.682;9.016;2023-09-19T16:01:25;22.80;91.90
3406;DHT22;10008;48.682;9.016;2023-09-19T16:03:52;22.70;91.60
3406;DHT22;10008;48.682;9.016;2023-09-19T16:06:20;22.60;91.40
3406;DHT22;10008;48.682;9.016;2023-09-19T16:08:50;22.60;92.40
3406;DHT22;10008;48.682;9.016;2023-09-19T16:11:17;22.60;91.80
3406;DHT22;10008;48.682;9.016;2023-09-19T16:13:43;22.30;90.70
3406;DHT22;10008;48.682;9.016;2023-09-19T16:16:14;22.10;91.60
3406;DHT22;10008;48.682;9.016;2023-09-19T16:19:01;22.00;91.90
3406;DHT22;10008;48.682;9.016;2023-09-19T16:21:29;21.80;93.10
3406;DHT22;10008;48.682;9.016;2023-09-19T16:23:57;21.70;92.30
3406;DHT22;10008;48.682;9.016;2023-09-19T16:26:24;21.60;92.70
3406;DHT22;10008;48.682;9.016;2023-09-19T16:28:52;21.40;92.60
3406;DHT22;10008;48.682;9.016;2023-09-19T16:31:18;21.30;93.60
3406;DHT22;10008;48.682;9.016;2023-09-19T16:33:46;21.30;93.30
3406;DHT22;10008;48.682;9.016;2023-09-19T16:36:14;21.20;93.50
3406;DHT22;10008;48.682;9.016;2023-09-19T16:38:41;21.10;93.50
3406;DHT22;10008;48.682;9.016;2023-09-19T16:41:07;20.90;94.60
3406;DHT22;10008;48.682;9.016;2023-09-19T16:43:34;20.70;94.40
3406;DHT22;10008;48.682;9.016;2023-09-19T16:46:01;20.60;95.70
3406;DHT22;10008;48.682;9.016;2023-09-19T16:48:28;20.50;95.60
3406;DHT22;10008;48.682;9.016;2023-09-19T16:51:01;20.40;95.80
3406;DHT22;10008;48.682;9.016;2023-09-19T16:53:31;20.40;96.20
3406;DHT22;10008;48.682;9.016;2023-09-19T16:56:04;20.30;95.30
3406;DHT22;10008;48.682;9.016;2023-09-19T16:58:42;20.30;96.40